sensor_id;sensor_type;location;lat;lon;timestamp;P1;durP1;ratioP1;P2;durP2;ratioP2
19940;SDS011;10132;50.864;5.176;2022-09-12T00:00:25;9.03;;;7.07;;
19940;SDS011;10132;50.864;5.176;2022-09-12T00:02:27;9.53;;;7.50;;
19940;SDS011;10132;50.864;5.176;2022-09-12T00:04:29;7.87;;;7.03;;
19940;SDS011;10132;50.864;5.176;2022-09-12T00:06:32;8.03;;;7.30;;
19940;SDS011;10132;50.864;5.176;2022-09-12T00:08:35;10.37;;;8.03;;
19940;SDS011;10132;50.864;5.176;2022-09-12T00:10:39;8.93;;;7.57;;
19940;SDS011;10132;50.864;5.176;2022-09-12T00:12:42;9.40;;;8.40;;
19940;SDS011;10132;50.864;5.176;2022-09-12T00:14:44;8.47;;;7.57;;
19940;SDS011;10132;50.864;5.176;2022-09-12T00:16:46;8.73;;;7.83;;
19940;SDS011;10132;50.864;5.176;2022-09-12T00:18:48;8.67;;;7.80;;
19940;SDS011;10132;50.864;5.176;2022-09-12T00:20:51;8.80;;;7.80;;
19940;SDS011;10132;50.864;5.176;2022-09-12T00:22:53;8.33;;;7.53;;
19940;SDS011;10132;50.864;5.176;2022-09-12T00:24:55;9.87;;;8.40;;
19940;SDS011;10132;50.864;5.176;2022-09-12T00:26:58;10.27;;;7.87;;
19940;SDS011;10132;50.864;5.176;2022-09-12T00:29:00;9.40;;;8.27;;
19940;SDS011;10132;50.864;5.176;2022-09-12T00:31:03;11.80;;;8.10;;
19940;SDS011;10132;50.864;5.176;2022-09-12T00:33:05;9.00;;;8.03;;
19940;SDS011;10132;50.864;5.176;2022-09-12T00:35:07;10.03;;;9.10;;
19940;SDS011;10132;50.864;5.176;2022-09-12T00:37:09;11.37;;;10.10;;
19940;SDS011;10132;50.864;5.176;2022-09-12T00:39:13;18.43;;;11.60;;
19940;SDS011;10132;50.864;5.176;2022-09-12T00:41:17;12.50;;;11.30;;
19940;SDS011;10132;50.864;5.176;2022-09-12T00:43:35;11.47;;;10.27;;
19940;SDS011;10132;50.864;5.176;2022-09-12T00:45:38;13.07;;;9.77;;
19940;SDS011;10132;50.864;5.176;2022-09-12T00:47:41;12.73;;;9.77;;
19940;SDS011;10132;50.864;5.176;2022-09-12T00:49:45;12.40;;;9.40;;
19940;SDS011;10132;50.864;5.176;2022-09-12T00:51:50;10.33;;;8.83;;
19940;SDS011;10132;50.864;5.176;2022-09-12T00:53:54;14.20;;;8.50;;
19940;SDS011;10132;50.864;5.176;2022-09-12T00:55:58;9.77;;;8.77;;
19940;SDS011;10132;50.864;5.176;2022-09-12T00:58:01;10.67;;;8.40;;
19940;SDS011;10132;50.864;5.176;2022-09-12T01:00:09;10.73;;;8.57;;
19940;SDS011;10132;50.864;5.176;2022-09-12T01:02:14;9.93;;;8.77;;
19940;SDS011;10132;50.864;5.176;2022-09-12T01:04:17;12.90;;;8.13;;
19940;SDS011;10132;50.864;5.176;2022-09-12T01:06:23;9.13;;;7.60;;
19940;SDS011;10132;50.864;5.176;2022-09-12T01:08:28;16.67;;;8.47;;
19940;SDS011;10132;50.864;5.176;2022-09-12T01:10:30;10.03;;;8.80;;
19940;SDS011;10132;50.864;5.176;2022-09-12T01:12:34;14.97;;;9.03;;
19940;SDS011;10132;50.864;5.176;2022-09-12T01:14:39;14.73;;;10.33;;
19940;SDS011;10132;50.864;5.176;2022-09-12T01:16:43;12.43;;;10.07;;
19940;SDS011;10132;50.864;5.176;2022-09-12T01:18:52;11.63;;;9.80;;
19940;SDS011;10132;50.864;5.176;2022-09-12T01:21:08;11.80;;;10.63;;
19940;SDS011;10132;50.864;5.176;2022-09-12T01:23:24;11.80;;;9.53;;
19940;SDS011;10132;50.864;5.176;2022-09-12T01:25:59;16.30;;;10.73;;
19940;SDS011;10132;50.864;5.176;2022-09-12T01:28:24;15.17;;;11.23;;
19940;SDS011;10132;50.864;5.176;2022-09-12T01:30:44;14.73;;;11.27;;
19940;SDS011;10132;50.864;5.176;2022-09-12T01:32:54;14.70;;;11.97;;
19940;SDS011;10132;50.864;5.176;2022-09-12T01:35:12;15.07;;;13.47;;
19940;SDS011;10132;50.864;5.176;2022-09-12T01:37:21;16.93;;;14.77;;
19940;SDS011;10132;50.864;5.176;2022-09-12T01:39:34;15.47;;;13.43;;
19940;SDS011;10132;50.864;5.176;2022-09-12T01:41:46;13.63;;;12.17;;
19940;SDS011;10132;50.864;5.176;2022-09-12T01:43:57;16.00;;;12.10;;
19940;SDS011;10132;50.864;5.176;2022-09-12T01:46:07;16.07;;;11.83;;
19940;SDS011;10132;50.864;5.176;2022-09-12T01:48:13;18.50;;;12.33;;
19940;SDS011;10132;50.864;5.176;2022-09-12T01:50:20;14.97;;;12.27;;
19940;SDS011;10132;50.864;5.176;2022-09-12T01:52:27;16.43;;;13.50;;
19940;SDS011;10132;50.864;5.176;2022-09-12T01:54:35;14.83;;;13.33;;
19940;SDS011;10132;50.864;5.176;2022-09-12T01:56:40;17.47;;;11.57;;
19940;SDS011;10132;50.864;5.176;2022-09-12T01:58:44;12.63;;;10.53;;
19940;SDS011;10132;50.864;5.176;2022-09-12T02:00:51;17.40;;;13.43;;
19940;SDS011;10132;50.864;5.176;2022-09-12T02:03:00;17.23;;;13.67;;
19940;SDS011;10132;50.864;5.176;2022-09-12T02:05:07;16.60;;;13.43;;
19940;SDS011;10132;50.864;5.176;2022-09-12T02:07:11;15.13;;;12.27;;
19940;SDS011;10132;50.864;5.176;2022-09-12T02:09:19;15.13;;;13.60;;
19940;SDS011;10132;50.864;5.176;2022-09-12T02:11:23;20.07;;;13.37;;
19940;SDS011;10132;50.864;5.176;2022-09-12T02:13:27;16.73;;;12.20;;
19940;SDS011;10132;50.864;5.176;2022-09-12T02:15:36;17.07;;;12.67;;
19940;SDS011;10132;50.864;5.176;2022-09-12T02:17:42;14.67;;;12.40;;
19940;SDS011;10132;50.864;5.176;2022-09-12T02:19:48;19.63;;;14.17;;
19940;SDS011;10132;50.864;5.176;2022-09-12T02:21:54;17.93;;;14.67;;
19940;SDS011;10132;50.864;5.176;2022-09-12T02:23:58;17.43;;;14.73;;
19940;SDS011;10132;50.864;5.176;2022-09-12T02:26:04;17.50;;;14.47;;
19940;SDS011;10132;50.864;5.176;2022-09-12T02:28:11;19.30;;;14.93;;
19940;SDS011;10132;50.864;5.176;2022-09-12T02:30:16;17.17;;;14.07;;
19940;SDS011;10132;50.864;5.176;2022-09-12T02:32:21;20.43;;;15.37;;
19940;SDS011;10132;50.864;5.176;2022-09-12T02:34:31;18.90;;;14.37;;
19940;SDS011;10132;50.864;5.176;2022-09-12T02:36:45;17.73;;;14.27;;
19940;SDS011;10132;50.864;5.176;2022-09-12T02:38:53;22.33;;;14.53;;
19940;SDS011;10132;50.864;5.176;2022-09-12T02:40:56;16.53;;;13.70;;
19940;SDS011;10132;50.864;5.176;2022-09-12T02:42:58;19.80;;;15.00;;
19940;SDS011;10132;50.864;5.176;2022-09-12T02:45:01;17.67;;;14.47;;
19940;SDS011;10132;50.864;5.176;2022-09-12T02:47:05;21.17;;;14.50;;
19940;SDS011;10132;50.864;5.176;2022-09-12T02:49:11;17.27;;;15.37;;
19940;SDS011;10132;50.864;5.176;2022-09-12T02:51:14;16.07;;;14.37;;
19940;SDS011;10132;50.864;5.176;2022-09-12T02:53:17;19.53;;;14.80;;
19940;SDS011;10132;50.864;5.176;2022-09-12T02:55:19;20.53;;;15.10;;
19940;SDS011;10132;50.864;5.176;2022-09-12T02:57:23;20.87;;;15.27;;
19940;SDS011;10132;50.864;5.176;2022-09-12T02:59:26;16.93;;;14.37;;
19940;SDS011;10132;50.864;5.176;2022-09-12T03:01:32;19.33;;;15.27;;
19940;SDS011;10132;50.864;5.176;2022-09-12T03:03:48;15.17;;;13.30;;
19940;SDS011;10132;50.864;5.176;2022-09-12T03:06:07;18.27;;;12.73;;
19940;SDS011;10132;50.864;5.176;2022-09-12T03:10:51;18.00;;;12.70;;
19940;SDS011;10132;50.864;5.176;2022-09-12T03:13:12;19.90;;;13.57;;
19940;SDS011;10132;50.864;5.176;2022-09-12T03:15:25;17.57;;;14.23;;
19940;SDS011;10132;50.864;5.176;2022-09-12T03:17:40;15.37;;;13.77;;
19940;SDS011;10132;50.864;5.176;2022-09-12T03:19:51;18.43;;;14.20;;
19940;SDS011;10132;50.864;5.176;2022-09-12T03:22:01;18.20;;;13.53;;
19940;SDS011;10132;50.864;5.176;2022-09-12T03:24:10;21.10;;;14.03;;
19940;SDS011;10132;50.864;5.176;2022-09-12T03:26:15;19.53;;;14.13;;
19940;SDS011;10132;50.864;5.176;2022-09-12T03:28:21;20.07;;;14.93;;
19940;SDS011;10132;50.864;5.176;2022-09-12T03:30:23;21.03;;;16.37;;
19940;SDS011;10132;50.864;5.176;2022-09-12T03:32:39;19.37;;;15.67;;
19940;SDS011;10132;50.864;5.176;2022-09-12T03:34:42;18.83;;;16.93;;
19940;SDS011;10132;50.864;5.176;2022-09-12T03:36:44;22.20;;;17.67;;
19940;SDS011;10132;50.864;5.176;2022-09-12T03:38:46;18.13;;;14.93;;
19940;SDS011;10132;50.864;5.176;2022-09-12T03:40:49;21.20;;;15.47;;
19940;SDS011;10132;50.864;5.176;2022-09-12T03:42:51;17.63;;;15.13;;
19940;SDS011;10132;50.864;5.176;2022-09-12T03:44:53;20.63;;;14.23;;
19940;SDS011;10132;50.864;5.176;2022-09-12T03:46:55;18.77;;;16.00;;
19940;SDS011;10132;50.864;5.176;2022-09-12T03:48:57;17.90;;;14.80;;
19940;SDS011;10132;50.864;5.176;2022-09-12T03:50:59;19.30;;;15.70;;
19940;SDS011;10132;50.864;5.176;2022-09-12T03:53:01;20.03;;;15.27;;
19940;SDS011;10132;50.864;5.176;2022-09-12T03:55:04;20.47;;;15.23;;
19940;SDS011;10132;50.864;5.176;2022-09-12T03:57:08;19.33;;;15.57;;
19940;SDS011;10132;50.864;5.176;2022-09-12T03:59:10;23.40;;;15.93;;
19940;SDS011;10132;50.864;5.176;2022-09-12T04:01:13;18.13;;;15.83;;
19940;SDS011;10132;50.864;5.176;2022-09-12T04:03:16;19.73;;;15.27;;
19940;SDS011;10132;50.864;5.176;2022-09-12T04:05:19;18.03;;;15.17;;
19940;SDS011;10132;50.864;5.176;2022-09-12T04:07:20;16.33;;;14.50;;
19940;SDS011;10132;50.864;5.176;2022-09-12T04:09:22;20.40;;;14.40;;
19940;SDS011;10132;50.864;5.176;2022-09-12T04:11:24;15.57;;;13.90;;
19940;SDS011;10132;50.864;5.176;2022-09-12T04:13:28;15.83;;;14.13;;
19940;SDS011;10132;50.864;5.176;2022-09-12T04:15:30;15.90;;;13.80;;
19940;SDS011;10132;50.864;5.176;2022-09-12T04:17:32;15.53;;;13.77;;
19940;SDS011;10132;50.864;5.176;2022-09-12T04:19:34;20.00;;;14.63;;
19940;SDS011;10132;50.864;5.176;2022-09-12T04:21:36;20.20;;;15.23;;
19940;SDS011;10132;50.864;5.176;2022-09-12T04:23:39;18.13;;;14.47;;
19940;SDS011;10132;50.864;5.176;2022-09-12T04:25:41;16.27;;;14.07;;
19940;SDS011;10132;50.864;5.176;2022-09-12T04:27:42;17.83;;;13.63;;
19940;SDS011;10132;50.864;5.176;2022-09-12T04:29:46;17.10;;;12.33;;
19940;SDS011;10132;50.864;5.176;2022-09-12T04:31:48;17.00;;;12.43;;
19940;SDS011;10132;50.864;5.176;2022-09-12T04:33:52;17.83;;;13.43;;
19940;SDS011;10132;50.864;5.176;2022-09-12T04:35:54;15.53;;;12.60;;
19940;SDS011;10132;50.864;5.176;2022-09-12T04:37:56;14.67;;;13.10;;
19940;SDS011;10132;50.864;5.176;2022-09-12T04:39:58;16.30;;;13.43;;
19940;SDS011;10132;50.864;5.176;2022-09-12T04:42:00;15.60;;;13.60;;
19940;SDS011;10132;50.864;5.176;2022-09-12T04:44:04;15.03;;;13.43;;
19940;SDS011;10132;50.864;5.176;2022-09-12T04:46:10;16.80;;;13.40;;
19940;SDS011;10132;50.864;5.176;2022-09-12T04:48:14;15.27;;;13.23;;
19940;SDS011;10132;50.864;5.176;2022-09-12T04:50:16;16.23;;;13.60;;
19940;SDS011;10132;50.864;5.176;2022-09-12T04:52:18;16.20;;;14.23;;
19940;SDS011;10132;50.864;5.176;2022-09-12T04:54:20;16.43;;;13.57;;
19940;SDS011;10132;50.864;5.176;2022-09-12T04:56:22;15.77;;;12.73;;
19940;SDS011;10132;50.864;5.176;2022-09-12T04:58:24;19.30;;;13.47;;
19940;SDS011;10132;50.864;5.176;2022-09-12T05:00:26;14.90;;;13.40;;
19940;SDS011;10132;50.864;5.176;2022-09-12T05:02:29;19.77;;;13.37;;
19940;SDS011;10132;50.864;5.176;2022-09-12T05:04:33;14.27;;;12.27;;
19940;SDS011;10132;50.864;5.176;2022-09-12T05:06:35;14.27;;;12.70;;
19940;SDS011;10132;50.864;5.176;2022-09-12T05:08:38;17.40;;;12.70;;
19940;SDS011;10132;50.864;5.176;2022-09-12T05:10:40;16.80;;;13.20;;
19940;SDS011;10132;50.864;5.176;2022-09-12T05:12:42;16.03;;;13.23;;
19940;SDS011;10132;50.864;5.176;2022-09-12T05:14:44;15.43;;;12.53;;
19940;SDS011;10132;50.864;5.176;2022-09-12T05:16:46;17.87;;;12.33;;
19940;SDS011;10132;50.864;5.176;2022-09-12T05:18:50;17.30;;;12.07;;
19940;SDS011;10132;50.864;5.176;2022-09-12T05:20:52;13.90;;;12.40;;
19940;SDS011;10132;50.864;5.176;2022-09-12T05:22:54;17.33;;;12.57;;
19940;SDS011;10132;50.864;5.176;2022-09-12T05:24:56;17.03;;;12.47;;
19940;SDS011;10132;50.864;5.176;2022-09-12T05:26:58;12.90;;;11.33;;
19940;SDS011;10132;50.864;5.176;2022-09-12T05:29:00;14.10;;;11.87;;
19940;SDS011;10132;50.864;5.176;2022-09-12T05:31:05;12.80;;;11.37;;
19940;SDS011;10132;50.864;5.176;2022-09-12T05:33:08;14.17;;;12.13;;
19940;SDS011;10132;50.864;5.176;2022-09-12T05:35:11;15.73;;;13.07;;
19940;SDS011;10132;50.864;5.176;2022-09-12T05:37:13;13.87;;;12.57;;
19940;SDS011;10132;50.864;5.176;2022-09-12T05:39:16;16.40;;;11.83;;
19940;SDS011;10132;50.864;5.176;2022-09-12T05:41:19;14.50;;;12.57;;
19940;SDS011;10132;50.864;5.176;2022-09-12T05:43:22;17.17;;;13.03;;
19940;SDS011;10132;50.864;5.176;2022-09-12T05:45:24;16.90;;;12.30;;
19940;SDS011;10132;50.864;5.176;2022-09-12T05:47:26;12.60;;;11.33;;
19940;SDS011;10132;50.864;5.176;2022-09-12T05:49:28;15.20;;;10.77;;
19940;SDS011;10132;50.864;5.176;2022-09-12T05:51:32;13.07;;;11.50;;
19940;SDS011;10132;50.864;5.176;2022-09-12T05:53:36;13.50;;;10.60;;
19940;SDS011;10132;50.864;5.176;2022-09-12T05:55:39;13.67;;;11.50;;
19940;SDS011;10132;50.864;5.176;2022-09-12T05:57:42;12.77;;;10.50;;
19940;SDS011;10132;50.864;5.176;2022-09-12T05:59:44;11.90;;;10.73;;
19940;SDS011;10132;50.864;5.176;2022-09-12T06:01:47;12.53;;;10.90;;
19940;SDS011;10132;50.864;5.176;2022-09-12T06:03:50;14.23;;;11.63;;
19940;SDS011;10132;50.864;5.176;2022-09-12T06:05:53;15.47;;;11.20;;
19940;SDS011;10132;50.864;5.176;2022-09-12T06:07:57;14.47;;;11.47;;
19940;SDS011;10132;50.864;5.176;2022-09-12T06:09:58;13.00;;;11.60;;
19940;SDS011;10132;50.864;5.176;2022-09-12T06:12:00;13.70;;;12.00;;
19940;SDS011;10132;50.864;5.176;2022-09-12T06:14:03;17.67;;;11.73;;
19940;SDS011;10132;50.864;5.176;2022-09-12T06:16:06;14.27;;;12.30;;
19940;SDS011;10132;50.864;5.176;2022-09-12T06:18:08;14.73;;;12.53;;
19940;SDS011;10132;50.864;5.176;2022-09-12T06:20:10;17.40;;;12.97;;
19940;SDS011;10132;50.864;5.176;2022-09-12T06:22:12;17.13;;;14.07;;
19940;SDS011;10132;50.864;5.176;2022-09-12T06:24:16;20.53;;;16.70;;
19940;SDS011;10132;50.864;5.176;2022-09-12T06:26:18;23.63;;;15.33;;
19940;SDS011;10132;50.864;5.176;2022-09-12T06:28:22;17.37;;;15.10;;
19940;SDS011;10132;50.864;5.176;2022-09-12T06:30:24;18.40;;;16.00;;
19940;SDS011;10132;50.864;5.176;2022-09-12T06:32:28;16.43;;;14.80;;
19940;SDS011;10132;50.864;5.176;2022-09-12T06:34:30;19.73;;;15.17;;
19940;SDS011;10132;50.864;5.176;2022-09-12T06:36:33;20.83;;;17.13;;
19940;SDS011;10132;50.864;5.176;2022-09-12T06:38:37;18.63;;;15.30;;
19940;SDS011;10132;50.864;5.176;2022-09-12T06:40:42;16.83;;;15.03;;
19940;SDS011;10132;50.864;5.176;2022-09-12T06:42:44;18.43;;;16.10;;
19940;SDS011;10132;50.864;5.176;2022-09-12T06:44:46;17.53;;;15.60;;
19940;SDS011;10132;50.864;5.176;2022-09-12T06:46:49;19.60;;;16.17;;
19940;SDS011;10132;50.864;5.176;2022-09-12T06:48:54;28.77;;;18.00;;
19940;SDS011;10132;50.864;5.176;2022-09-12T06:50:56;20.20;;;17.20;;
19940;SDS011;10132;50.864;5.176;2022-09-12T06:52:59;20.63;;;17.53;;
19940;SDS011;10132;50.864;5.176;2022-09-12T06:55:01;22.30;;;18.10;;
19940;SDS011;10132;50.864;5.176;2022-09-12T06:57:06;19.57;;;16.37;;
19940;SDS011;10132;50.864;5.176;2022-09-12T06:59:08;15.67;;;14.07;;
19940;SDS011;10132;50.864;5.176;2022-09-12T07:01:10;17.80;;;15.23;;
19940;SDS011;10132;50.864;5.176;2022-09-12T07:03:14;15.67;;;14.00;;
19940;SDS011;10132;50.864;5.176;2022-09-12T07:05:16;13.80;;;12.30;;
19940;SDS011;10132;50.864;5.176;2022-09-12T07:07:18;14.37;;;12.10;;
19940;SDS011;10132;50.864;5.176;2022-09-12T07:09:20;13.27;;;11.43;;
19940;SDS011;10132;50.864;5.176;2022-09-12T07:11:22;14.03;;;12.60;;
19940;SDS011;10132;50.864;5.176;2022-09-12T07:13:27;15.13;;;12.17;;
19940;SDS011;10132;50.864;5.176;2022-09-12T07:15:29;14.60;;;13.03;;
19940;SDS011;10132;50.864;5.176;2022-09-12T07:17:31;12.97;;;11.60;;
19940;SDS011;10132;50.864;5.176;2022-09-12T07:19:32;13.30;;;11.43;;
19940;SDS011;10132;50.864;5.176;2022-09-12T07:21:35;14.73;;;11.93;;
19940;SDS011;10132;50.864;5.176;2022-09-12T07:23:38;12.87;;;11.57;;
19940;SDS011;10132;50.864;5.176;2022-09-12T07:25:41;13.60;;;10.83;;
19940;SDS011;10132;50.864;5.176;2022-09-12T07:27:42;17.13;;;11.40;;
19940;SDS011;10132;50.864;5.176;2022-09-12T07:29:46;13.37;;;11.33;;
19940;SDS011;10132;50.864;5.176;2022-09-12T07:31:48;12.67;;;11.13;;
19940;SDS011;10132;50.864;5.176;2022-09-12T07:33:50;12.40;;;10.90;;
19940;SDS011;10132;50.864;5.176;2022-09-12T07:35:52;11.27;;;10.13;;
19940;SDS011;10132;50.864;5.176;2022-09-12T07:37:54;12.93;;;10.27;;
19940;SDS011;10132;50.864;5.176;2022-09-12T07:39:56;14.27;;;10.57;;
19940;SDS011;10132;50.864;5.176;2022-09-12T07:41:58;12.35;;;10.15;;
19940;SDS011;10132;50.864;5.176;2022-09-12T07:44:00;13.85;;;10.20;;
19940;SDS011;10132;50.864;5.176;2022-09-12T07:46:07;12.73;;;10.45;;
19940;SDS011;10132;50.864;5.176;2022-09-12T07:48:09;17.48;;;10.00;;
19940;SDS011;10132;50.864;5.176;2022-09-12T07:50:11;13.75;;;10.57;;
19940;SDS011;10132;50.864;5.176;2022-09-12T07:52:13;13.75;;;10.27;;
19940;SDS011;10132;50.864;5.176;2022-09-12T07:54:15;11.82;;;10.05;;
19940;SDS011;10132;50.864;5.176;2022-09-12T07:56:17;14.07;;;9.52;;
19940;SDS011;10132;50.864;5.176;2022-09-12T07:58:21;16.95;;;9.43;;
19940;SDS011;10132;50.864;5.176;2022-09-12T08:00:23;17.05;;;9.30;;
19940;SDS011;10132;50.864;5.176;2022-09-12T08:02:27;16.52;;;9.77;;
19940;SDS011;10132;50.864;5.176;2022-09-12T08:10:23;18.63;;;8.98;;
19940;SDS011;10132;50.864;5.176;2022-09-12T08:12:26;16.17;;;8.63;;
19940;SDS011;10132;50.864;5.176;2022-09-12T08:14:28;16.50;;;8.20;;
19940;SDS011;10132;50.864;5.176;2022-09-12T08:16:30;15.82;;;8.55;;
19940;SDS011;10132;50.864;5.176;2022-09-12T08:18:35;20.35;;;8.60;;
19940;SDS011;10132;50.864;5.176;2022-09-12T08:20:37;16.73;;;8.05;;
19940;SDS011;10132;50.864;5.176;2022-09-12T08:22:38;14.68;;;7.80;;
19940;SDS011;10132;50.864;5.176;2022-09-12T08:24:41;13.52;;;7.95;;
19940;SDS011;10132;50.864;5.176;2022-09-12T08:26:43;15.85;;;7.90;;
19940;SDS011;10132;50.864;5.176;2022-09-12T08:28:45;13.68;;;8.40;;
19940;SDS011;10132;50.864;5.176;2022-09-12T08:30:47;14.75;;;8.02;;
19940;SDS011;10132;50.864;5.176;2022-09-12T08:32:49;10.27;;;6.80;;
19940;SDS011;10132;50.864;5.176;2022-09-12T08:34:52;12.75;;;6.75;;
19940;SDS011;10132;50.864;5.176;2022-09-12T08:36:54;7.55;;;6.32;;
19940;SDS011;10132;50.864;5.176;2022-09-12T08:38:57;8.48;;;5.45;;
19940;SDS011;10132;50.864;5.176;2022-09-12T08:41:01;9.20;;;5.18;;
19940;SDS011;10132;50.864;5.176;2022-09-12T08:43:10;7.82;;;5.90;;
19940;SDS011;10132;50.864;5.176;2022-09-12T08:45:24;6.22;;;5.60;;
19940;SDS011;10132;50.864;5.176;2022-09-12T08:47:32;6.75;;;5.70;;
19940;SDS011;10132;50.864;5.176;2022-09-12T08:49:38;6.30;;;5.10;;
19940;SDS011;10132;50.864;5.176;2022-09-12T08:51:49;5.43;;;4.93;;
19940;SDS011;10132;50.864;5.176;2022-09-12T08:53:51;6.55;;;5.18;;
19940;SDS011;10132;50.864;5.176;2022-09-12T08:55:56;5.35;;;4.63;;
19940;SDS011;10132;50.864;5.176;2022-09-12T08:58:00;5.80;;;5.13;;
19940;SDS011;10132;50.864;5.176;2022-09-12T09:00:11;4.97;;;4.50;;
19940;SDS011;10132;50.864;5.176;2022-09-12T09:02:25;5.97;;;4.53;;
19940;SDS011;10132;50.864;5.176;2022-09-12T09:04:51;6.10;;;4.28;;
19940;SDS011;10132;50.864;5.176;2022-09-12T09:07:07;6.32;;;4.30;;
19940;SDS011;10132;50.864;5.176;2022-09-12T09:09:23;5.90;;;4.07;;
19940;SDS011;10132;50.864;5.176;2022-09-12T09:11:38;6.03;;;3.97;;
19940;SDS011;10132;50.864;5.176;2022-09-12T09:13:53;6.57;;;3.90;;
19940;SDS011;10132;50.864;5.176;2022-09-12T09:16:35;6.68;;;4.63;;
19940;SDS011;10132;50.864;5.176;2022-09-12T09:18:39;4.57;;;4.18;;
19940;SDS011;10132;50.864;5.176;2022-09-12T09:20:47;4.40;;;3.90;;
19940;SDS011;10132;50.864;5.176;2022-09-12T09:22:55;4.97;;;3.97;;
19940;SDS011;10132;50.864;5.176;2022-09-12T09:25:01;6.05;;;4.20;;
19940;SDS011;10132;50.864;5.176;2022-09-12T09:27:09;8.65;;;4.15;;
19940;SDS011;10132;50.864;5.176;2022-09-12T09:29:15;4.30;;;3.90;;
19940;SDS011;10132;50.864;5.176;2022-09-12T09:31:20;5.47;;;3.97;;
19940;SDS011;10132;50.864;5.176;2022-09-12T09:33:24;4.72;;;4.30;;
19940;SDS011;10132;50.864;5.176;2022-09-12T09:35:36;4.40;;;4.00;;
19940;SDS011;10132;50.864;5.176;2022-09-12T09:37:44;6.55;;;3.85;;
19940;SDS011;10132;50.864;5.176;2022-09-12T09:40:02;3.60;;;3.17;;
19940;SDS011;10132;50.864;5.176;2022-09-12T09:42:15;3.58;;;3.28;;
19940;SDS011;10132;50.864;5.176;2022-09-12T09:44:24;4.63;;;2.78;;
19940;SDS011;10132;50.864;5.176;2022-09-12T09:46:29;4.25;;;3.17;;
19940;SDS011;10132;50.864;5.176;2022-09-12T09:48:33;3.90;;;2.92;;
19940;SDS011;10132;50.864;5.176;2022-09-12T09:50:37;5.25;;;2.60;;
19940;SDS011;10132;50.864;5.176;2022-09-12T09:52:39;4.95;;;3.10;;
19940;SDS011;10132;50.864;5.176;2022-09-12T09:54:45;5.18;;;3.35;;
19940;SDS011;10132;50.864;5.176;2022-09-12T09:56:51;2.70;;;2.50;;
19940;SDS011;10132;50.864;5.176;2022-09-12T09:58:54;3.65;;;2.67;;
19940;SDS011;10132;50.864;5.176;2022-09-12T10:00:59;3.38;;;2.20;;
19940;SDS011;10132;50.864;5.176;2022-09-12T10:03:22;3.30;;;3.00;;
19940;SDS011;10132;50.864;5.176;2022-09-12T10:05:32;2.20;;;2.00;;
19940;SDS011;10132;50.864;5.176;2022-09-12T10:07:37;2.70;;;2.20;;
19940;SDS011;10132;50.864;5.176;2022-09-12T10:10:04;3.53;;;2.17;;
19940;SDS011;10132;50.864;5.176;2022-09-12T10:12:19;2.60;;;2.33;;
19940;SDS011;10132;50.864;5.176;2022-09-12T10:14:29;3.13;;;2.60;;
19940;SDS011;10132;50.864;5.176;2022-09-12T10:16:47;3.97;;;3.00;;
19940;SDS011;10132;50.864;5.176;2022-09-12T10:18:52;2.83;;;2.63;;
19940;SDS011;10132;50.864;5.176;2022-09-12T10:20:55;4.22;;;2.30;;
19940;SDS011;10132;50.864;5.176;2022-09-12T10:22:57;4.03;;;1.88;;
19940;SDS011;10132;50.864;5.176;2022-09-12T10:25:01;3.80;;;2.00;;
19940;SDS011;10132;50.864;5.176;2022-09-12T10:27:13;2.22;;;1.73;;
19940;SDS011;10132;50.864;5.176;2022-09-12T10:29:17;2.60;;;1.70;;
19940;SDS011;10132;50.864;5.176;2022-09-12T10:31:25;2.58;;;1.60;;
19940;SDS011;10132;50.864;5.176;2022-09-12T10:33:29;2.13;;;1.88;;
19940;SDS011;10132;50.864;5.176;2022-09-12T10:35:41;2.65;;;1.95;;
19940;SDS011;10132;50.864;5.176;2022-09-12T10:37:50;2.88;;;2.00;;
19940;SDS011;10132;50.864;5.176;2022-09-12T10:39:55;4.65;;;1.90;;
19940;SDS011;10132;50.864;5.176;2022-09-12T10:42:00;2.30;;;2.00;;
19940;SDS011;10132;50.864;5.176;2022-09-12T10:44:06;1.90;;;1.80;;
19940;SDS011;10132;50.864;5.176;2022-09-12T10:46:22;4.75;;;2.13;;
19940;SDS011;10132;50.864;5.176;2022-09-12T10:48:29;2.53;;;1.90;;
19940;SDS011;10132;50.864;5.176;2022-09-12T10:50:34;4.00;;;1.73;;
19940;SDS011;10132;50.864;5.176;2022-09-12T10:52:40;3.20;;;1.90;;
19940;SDS011;10132;50.864;5.176;2022-09-12T10:54:42;2.47;;;2.28;;
19940;SDS011;10132;50.864;5.176;2022-09-12T10:56:46;6.85;;;2.20;;
19940;SDS011;10132;50.864;5.176;2022-09-12T10:59:23;3.67;;;2.20;;
19940;SDS011;10132;50.864;5.176;2022-09-12T11:01:34;3.80;;;2.35;;
19940;SDS011;10132;50.864;5.176;2022-09-12T11:03:46;5.00;;;3.00;;
19940;SDS011;10132;50.864;5.176;2022-09-12T11:06:00;4.18;;;2.80;;
19940;SDS011;10132;50.864;5.176;2022-09-12T11:08:06;4.75;;;2.50;;
19940;SDS011;10132;50.864;5.176;2022-09-12T11:10:17;2.40;;;2.20;;
19940;SDS011;10132;50.864;5.176;2022-09-12T11:12:30;2.60;;;2.30;;
19940;SDS011;10132;50.864;5.176;2022-09-12T11:14:45;3.15;;;2.30;;
19940;SDS011;10132;50.864;5.176;2022-09-12T11:16:57;5.07;;;2.60;;
19940;SDS011;10132;50.864;5.176;2022-09-12T11:19:10;3.13;;;2.30;;
19940;SDS011;10132;50.864;5.176;2022-09-12T11:21:28;3.42;;;2.30;;
19940;SDS011;10132;50.864;5.176;2022-09-12T11:26:26;2.30;;;2.03;;
19940;SDS011;10132;50.864;5.176;2022-09-12T11:28:45;2.45;;;2.25;;
19940;SDS011;10132;50.864;5.176;2022-09-12T11:31:01;3.28;;;2.20;;
19940;SDS011;10132;50.864;5.176;2022-09-12T11:33:21;2.63;;;2.00;;
19940;SDS011;10132;50.864;5.176;2022-09-12T11:35:36;2.60;;;1.90;;
19940;SDS011;10132;50.864;5.176;2022-09-12T11:37:50;3.30;;;1.80;;
19940;SDS011;10132;50.864;5.176;2022-09-12T11:40:04;5.13;;;1.90;;
19940;SDS011;10132;50.864;5.176;2022-09-12T11:42:24;2.88;;;1.90;;
19940;SDS011;10132;50.864;5.176;2022-09-12T11:44:33;3.25;;;2.20;;
19940;SDS011;10132;50.864;5.176;2022-09-12T11:46:40;4.65;;;2.20;;
19940;SDS011;10132;50.864;5.176;2022-09-12T11:48:47;2.47;;;2.28;;
19940;SDS011;10132;50.864;5.176;2022-09-12T11:50:55;2.85;;;1.88;;
19940;SDS011;10132;50.864;5.176;2022-09-12T11:52:59;3.17;;;1.90;;
19940;SDS011;10132;50.864;5.176;2022-09-12T11:55:10;2.22;;;2.03;;
19940;SDS011;10132;50.864;5.176;2022-09-12T11:57:19;2.40;;;1.90;;
19940;SDS011;10132;50.864;5.176;2022-09-12T11:59:29;2.35;;;1.80;;
19940;SDS011;10132;50.864;5.176;2022-09-12T12:01:38;2.97;;;1.80;;
19940;SDS011;10132;50.864;5.176;2022-09-12T12:03:44;4.70;;;2.92;;
19940;SDS011;10132;50.864;5.176;2022-09-12T12:05:48;3.13;;;2.50;;
19940;SDS011;10132;50.864;5.176;2022-09-12T12:07:54;3.10;;;2.53;;
19940;SDS011;10132;50.864;5.176;2022-09-12T12:09:57;3.08;;;2.40;;
19940;SDS011;10132;50.864;5.176;2022-09-12T12:11:59;3.72;;;2.10;;
19940;SDS011;10132;50.864;5.176;2022-09-12T12:14:06;2.38;;;2.17;;
19940;SDS011;10132;50.864;5.176;2022-09-12T12:16:18;2.63;;;2.10;;
19940;SDS011;10132;50.864;5.176;2022-09-12T12:18:23;3.08;;;2.17;;
19940;SDS011;10132;50.864;5.176;2022-09-12T12:20:26;3.10;;;2.15;;
19940;SDS011;10132;50.864;5.176;2022-09-12T12:22:29;2.00;;;1.80;;
19940;SDS011;10132;50.864;5.176;2022-09-12T12:24:31;2.85;;;2.10;;
19940;SDS011;10132;50.864;5.176;2022-09-12T12:29:01;4.03;;;2.35;;
19940;SDS011;10132;50.864;5.176;2022-09-12T12:31:04;2.13;;;1.90;;
19940;SDS011;10132;50.864;5.176;2022-09-12T12:33:50;2.78;;;1.80;;
19940;SDS011;10132;50.864;5.176;2022-09-12T12:36:00;2.47;;;2.00;;
19940;SDS011;10132;50.864;5.176;2022-09-12T12:38:06;3.15;;;2.08;;